sensor_id;sensor_type;location;lat;lon;timestamp;P1;durP1;ratioP1;P2;durP2;ratioP2
32786;SDS011;19139;49.372;8.580;2023-06-26T00:01:28;9.50;;;8.50;;
32786;SDS011;19139;49.372;8.580;2023-06-26T00:03:58;12.93;;;8.80;;
32786;SDS011;19139;49.372;8.580;2023-06-26T00:06:25;9.33;;;8.17;;
32786;SDS011;19139;49.372;8.580;2023-06-26T00:08:53;11.37;;;8.97;;
32786;SDS011;19139;49.372;8.580;2023-06-26T00:11:21;10.23;;;9.23;;
32786;SDS011;19139;49.372;8.580;2023-06-26T00:13:48;9.83;;;8.33;;
32786;SDS011;19139;49.372;8.580;2023-06-26T00:16:14;10.63;;;8.77;;
32786;SDS011;19139;49.372;8.580;2023-06-26T00:18:41;11.17;;;9.30;;
32786;SDS011;19139;49.372;8.580;2023-06-26T00:21:08;10.40;;;9.33;;
32786;SDS011;19139;49.372;8.580;2023-06-26T00:23:34;10.77;;;8.67;;
32786;SDS011;19139;49.372;8.580;2023-06-26T00:26:05;12.33;;;9.50;;
32786;SDS011;19139;49.372;8.580;2023-06-26T00:28:32;10.10;;;9.03;;
32786;SDS011;19139;49.372;8.580;2023-06-26T00:30:59;9.37;;;8.47;;
32786;SDS011;19139;49.372;8.580;2023-06-26T00:33:26;9.87;;;8.67;;
32786;SDS011;19139;49.372;8.580;2023-06-26T00:35:52;13.17;;;9.23;;
32786;SDS011;19139;49.372;8.580;2023-06-26T00:38:19;13.47;;;8.70;;
32786;SDS011;19139;49.372;8.580;2023-06-26T00:40:46;12.67;;;8.83;;
32786;SDS011;19139;49.372;8.580;2023-06-26T00:43:12;10.50;;;9.33;;
32786;SDS011;19139;49.372;8.580;2023-06-26T00:45:39;11.17;;;9.07;;
32786;SDS011;19139;49.372;8.580;2023-06-26T00:48:09;11.63;;;9.93;;
32786;SDS011;19139;49.372;8.580;2023-06-26T00:50:38;11.00;;;9.83;;
32786;SDS011;19139;49.372;8.580;2023-06-26T00:53:06;9.43;;;8.53;;
32786;SDS011;19139;49.372;8.580;2023-06-26T00:55:32;12.53;;;8.97;;
32786;SDS011;19139;49.372;8.580;2023-06-26T00:57:59;10.33;;;9.33;;
32786;SDS011;19139;49.372;8.580;2023-06-26T01:00:26;12.43;;;9.20;;
32786;SDS011;19139;49.372;8.580;2023-06-26T01:02:53;11.43;;;9.90;;
32786;SDS011;19139;49.372;8.580;2023-06-26T01:05:26;9.97;;;8.53;;
32786;SDS011;19139;49.372;8.580;2023-06-26T01:07:54;10.23;;;9.13;;
32786;SDS011;19139;49.372;8.580;2023-06-26T01:10:21;13.27;;;9.60;;
32786;SDS011;19139;49.372;8.580;2023-06-26T01:12:49;10.63;;;8.90;;
32786;SDS011;19139;49.372;8.580;2023-06-26T01:15:16;11.37;;;9.20;;
32786;SDS011;19139;49.372;8.580;2023-06-26T01:17:42;10.80;;;9.00;;
32786;SDS011;19139;49.372;8.580;2023-06-26T01:20:11;10.03;;;8.70;;
32786;SDS011;19139;49.372;8.580;2023-06-26T01:22:47;10.97;;;8.73;;
32786;SDS011;19139;49.372;8.580;2023-06-26T01:28:09;9.30;;;8.33;;
32786;SDS011;19139;49.372;8.580;2023-06-26T01:30:44;10.33;;;8.80;;
32786;SDS011;19139;49.372;8.580;2023-06-26T01:33:12;9.03;;;8.20;;
32786;SDS011;19139;49.372;8.580;2023-06-26T01:35:39;10.57;;;8.80;;
32786;SDS011;19139;49.372;8.580;2023-06-26T01:38:16;14.43;;;9.30;;
32786;SDS011;19139;49.372;8.580;2023-06-26T01:40:44;10.73;;;9.63;;
32786;SDS011;19139;49.372;8.580;2023-06-26T01:46:10;10.83;;;9.33;;
32786;SDS011;19139;49.372;8.580;2023-06-26T01:49:25;9.27;;;8.33;;
32786;SDS011;19139;49.372;8.580;2023-06-26T01:52:28;8.60;;;7.70;;
32786;SDS011;19139;49.372;8.580;2023-06-26T01:58:02;8.47;;;7.53;;
32786;SDS011;19139;49.372;8.580;2023-06-26T02:00:29;8.50;;;7.70;;
32786;SDS011;19139;49.372;8.580;2023-06-26T02:02:58;8.70;;;7.80;;
32786;SDS011;19139;49.372;8.580;2023-06-26T02:05:25;8.90;;;8.00;;
32786;SDS011;19139;49.372;8.580;2023-06-26T02:07:51;7.93;;;7.13;;
32786;SDS011;19139;49.372;8.580;2023-06-26T02:10:18;9.10;;;8.20;;
32786;SDS011;19139;49.372;8.580;2023-06-26T02:12:45;8.43;;;7.53;;
32786;SDS011;19139;49.372;8.580;2023-06-26T02:15:11;8.27;;;6.90;;
32786;SDS011;19139;49.372;8.580;2023-06-26T02:17:38;7.83;;;7.13;;
32786;SDS011;19139;49.372;8.580;2023-06-26T02:20:05;8.60;;;7.80;;
32786;SDS011;19139;49.372;8.580;2023-06-26T02:22:33;9.03;;;7.20;;
32786;SDS011;19139;49.372;8.580;2023-06-26T02:25:00;9.10;;;7.13;;
32786;SDS011;19139;49.372;8.580;2023-06-26T02:27:27;8.47;;;7.67;;
32786;SDS011;19139;49.372;8.580;2023-06-26T02:29:53;8.03;;;7.23;;
32786;SDS011;19139;49.372;8.580;2023-06-26T02:32:20;8.90;;;8.10;;
32786;SDS011;19139;49.372;8.580;2023-06-26T02:34:47;8.00;;;7.20;;
32786;SDS011;19139;49.372;8.580;2023-06-26T02:37:13;8.17;;;7.37;;
32786;SDS011;19139;49.372;8.580;2023-06-26T02:39:42;10.07;;;7.53;;
32786;SDS011;19139;49.372;8.580;2023-06-26T02:42:08;8.83;;;7.17;;
32786;SDS011;19139;49.372;8.580;2023-06-26T02:44:35;8.23;;;7.43;;
32786;SDS011;19139;49.372;8.580;2023-06-26T02:47:02;7.77;;;7.07;;
32786;SDS011;19139;49.372;8.580;2023-06-26T02:49:29;9.93;;;8.03;;
32786;SDS011;19139;49.372;8.580;2023-06-26T02:51:55;8.60;;;7.80;;
32786;SDS011;19139;49.372;8.580;2023-06-26T02:54:22;8.23;;;7.23;;
32786;SDS011;19139;49.372;8.580;2023-06-26T02:56:49;8.23;;;7.43;;
32786;SDS011;19139;49.372;8.580;2023-06-26T02:59:15;8.17;;;7.33;;
32786;SDS011;19139;49.372;8.580;2023-06-26T03:01:42;8.40;;;7.37;;
32786;SDS011;19139;49.372;8.580;2023-06-26T03:04:09;7.27;;;6.63;;
32786;SDS011;19139;49.372;8.580;2023-06-26T03:06:36;7.67;;;6.90;;
32786;SDS011;19139;49.372;8.580;2023-06-26T03:09:03;8.63;;;7.80;;
32786;SDS011;19139;49.372;8.580;2023-06-26T03:11:30;8.33;;;7.07;;
32786;SDS011;19139;49.372;8.580;2023-06-26T03:13:56;8.60;;;7.70;;
32786;SDS011;19139;49.372;8.580;2023-06-26T03:16:23;8.30;;;7.50;;
32786;SDS011;19139;49.372;8.580;2023-06-26T03:18:50;8.00;;;7.20;;
32786;SDS011;19139;49.372;8.580;2023-06-26T03:23:50;7.10;;;6.40;;
32786;SDS011;19139;49.372;8.580;2023-06-26T03:26:17;7.87;;;7.07;;
32786;SDS011;19139;49.372;8.580;2023-06-26T03:28:43;8.67;;;7.23;;
32786;SDS011;19139;49.372;8.580;2023-06-26T03:31:10;8.07;;;7.30;;
32786;SDS011;19139;49.372;8.580;2023-06-26T03:33:37;8.90;;;8.00;;
32786;SDS011;19139;49.372;8.580;2023-06-26T03:36:04;8.33;;;7.50;;
32786;SDS011;19139;49.372;8.580;2023-06-26T03:38:32;8.00;;;7.30;;
32786;SDS011;19139;49.372;8.580;2023-06-26T03:40:58;7.83;;;7.10;;
32786;SDS011;19139;49.372;8.580;2023-06-26T03:43:25;8.50;;;7.70;;
32786;SDS011;19139;49.372;8.580;2023-06-26T03:45:52;7.63;;;6.80;;
32786;SDS011;19139;49.372;8.580;2023-06-26T03:48:18;8.00;;;7.20;;
32786;SDS011;19139;49.372;8.580;2023-06-26T03:50:45;9.13;;;7.33;;
32786;SDS011;19139;49.372;8.580;2023-06-26T03:53:12;9.87;;;7.20;;
32786;SDS011;19139;49.372;8.580;2023-06-26T03:55:38;7.87;;;7.07;;
32786;SDS011;19139;49.372;8.580;2023-06-26T03:58:06;7.30;;;6.60;;
32786;SDS011;19139;49.372;8.580;2023-06-26T04:00:32;8.23;;;7.43;;
32786;SDS011;19139;49.372;8.580;2023-06-26T04:02:59;10.90;;;7.20;;
32786;SDS011;19139;49.372;8.580;2023-06-26T04:05:26;8.43;;;7.63;;
32786;SDS011;19139;49.372;8.580;2023-06-26T04:07:52;8.37;;;7.57;;
32786;SDS011;19139;49.372;8.580;2023-06-26T04:10:20;8.50;;;7.50;;
32786;SDS011;19139;49.372;8.580;2023-06-26T04:12:47;8.83;;;7.37;;
32786;SDS011;19139;49.372;8.580;2023-06-26T04:15:14;8.10;;;7.30;;
32786;SDS011;19139;49.372;8.580;2023-06-26T04:17:41;8.50;;;7.70;;
32786;SDS011;19139;49.372;8.580;2023-06-26T04:20:07;8.27;;;7.30;;
32786;SDS011;19139;49.372;8.580;2023-06-26T04:22:35;8.10;;;7.30;;
32786;SDS011;19139;49.372;8.580;2023-06-26T04:25:02;8.87;;;7.07;;
32786;SDS011;19139;49.372;8.580;2023-06-26T04:27:29;7.40;;;6.70;;
32786;SDS011;19139;49.372;8.580;2023-06-26T04:30:02;9.00;;;7.40;;
32786;SDS011;19139;49.372;8.580;2023-06-26T04:32:29;8.33;;;7.40;;
32786;SDS011;19139;49.372;8.580;2023-06-26T04:34:55;8.70;;;7.90;;
32786;SDS011;19139;49.372;8.580;2023-06-26T04:37:22;8.33;;;7.33;;
32786;SDS011;19139;49.372;8.580;2023-06-26T04:39:50;8.40;;;7.70;;
32786;SDS011;19139;49.372;8.580;2023-06-26T04:42:17;8.77;;;7.97;;
32786;SDS011;19139;49.372;8.580;2023-06-26T04:44:45;8.27;;;7.47;;
32786;SDS011;19139;49.372;8.580;2023-06-26T04:47:11;8.67;;;7.07;;
32786;SDS011;19139;49.372;8.580;2023-06-26T04:49:41;7.60;;;6.90;;
32786;SDS011;19139;49.372;8.580;2023-06-26T04:52:12;10.13;;;8.27;;
32786;SDS011;19139;49.372;8.580;2023-06-26T04:54:39;8.40;;;7.60;;
32786;SDS011;19139;49.372;8.580;2023-06-26T04:57:06;10.23;;;8.10;;
32786;SDS011;19139;49.372;8.580;2023-06-26T04:59:35;10.10;;;8.03;;
32786;SDS011;19139;49.372;8.580;2023-06-26T05:02:01;9.50;;;8.50;;
32786;SDS011;19139;49.372;8.580;2023-06-26T05:04:29;8.77;;;7.87;;
32786;SDS011;19139;49.372;8.580;2023-06-26T05:06:56;10.50;;;7.77;;
32786;SDS011;19139;49.372;8.580;2023-06-26T05:09:22;9.40;;;8.50;;
32786;SDS011;19139;49.372;8.580;2023-06-26T05:11:49;9.87;;;8.87;;
32786;SDS011;19139;49.372;8.580;2023-06-26T05:14:15;8.73;;;7.83;;
32786;SDS011;19139;49.372;8.580;2023-06-26T05:16:42;9.07;;;8.17;;
32786;SDS011;19139;49.372;8.580;2023-06-26T05:19:09;9.67;;;8.77;;
32786;SDS011;19139;49.372;8.580;2023-06-26T05:21:35;9.67;;;8.40;;
32786;SDS011;19139;49.372;8.580;2023-06-26T05:24:02;11.17;;;8.33;;
32786;SDS011;19139;49.372;8.580;2023-06-26T05:26:30;9.50;;;7.57;;
32786;SDS011;19139;49.372;8.580;2023-06-26T05:28:57;11.03;;;8.90;;
32786;SDS011;19139;49.372;8.580;2023-06-26T05:31:24;8.80;;;7.90;;
32786;SDS011;19139;49.372;8.580;2023-06-26T05:33:51;9.50;;;8.60;;
32786;SDS011;19139;49.372;8.580;2023-06-26T05:36:21;8.57;;;7.60;;
32786;SDS011;19139;49.372;8.580;2023-06-26T05:38:50;9.50;;;8.03;;
32786;SDS011;19139;49.372;8.580;2023-06-26T05:41:17;9.30;;;8.33;;
32786;SDS011;19139;49.372;8.580;2023-06-26T05:43:44;8.80;;;7.30;;
32786;SDS011;19139;49.372;8.580;2023-06-26T05:46:10;8.93;;;8.13;;
32786;SDS011;19139;49.372;8.580;2023-06-26T05:48:37;8.47;;;7.20;;
32786;SDS011;19139;49.372;8.580;2023-06-26T05:51:04;9.17;;;8.20;;
32786;SDS011;19139;49.372;8.580;2023-06-26T05:53:31;8.97;;;8.07;;
32786;SDS011;19139;49.372;8.580;2023-06-26T05:55:58;8.77;;;7.50;;
32786;SDS011;19139;49.372;8.580;2023-06-26T05:58:28;9.37;;;7.50;;
32786;SDS011;19139;49.372;8.580;2023-06-26T06:00:55;8.50;;;7.40;;
32786;SDS011;19139;49.372;8.580;2023-06-26T06:03:22;9.20;;;7.57;;
32786;SDS011;19139;49.372;8.580;2023-06-26T06:05:49;7.97;;;7.17;;
32786;SDS011;19139;49.372;8.580;2023-06-26T06:08:16;8.73;;;7.77;;
32786;SDS011;19139;49.372;8.580;2023-06-26T06:10:43;8.23;;;7.23;;
32786;SDS011;19139;49.372;8.580;2023-06-26T06:13:09;8.40;;;7.60;;
32786;SDS011;19139;49.372;8.580;2023-06-26T06:15:36;8.30;;;7.50;;
32786;SDS011;19139;49.372;8.580;2023-06-26T06:18:03;8.47;;;7.67;;
32786;SDS011;19139;49.372;8.580;2023-06-26T06:20:30;7.80;;;7.07;;
32786;SDS011;19139;49.372;8.580;2023-06-26T06:22:56;7.40;;;6.70;;
32786;SDS011;19139;49.372;8.580;2023-06-26T06:25:23;8.07;;;6.90;;
32786;SDS011;19139;49.372;8.580;2023-06-26T06:27:49;8.53;;;7.03;;
32786;SDS011;19139;49.372;8.580;2023-06-26T06:30:16;8.93;;;7.40;;
32786;SDS011;19139;49.372;8.580;2023-06-26T06:32:51;7.90;;;7.13;;
32786;SDS011;19139;49.372;8.580;2023-06-26T06:35:18;7.77;;;6.97;;
32786;SDS011;19139;49.372;8.580;2023-06-26T06:37:45;7.70;;;7.00;;
32786;SDS011;19139;49.372;8.580;2023-06-26T06:40:12;8.43;;;7.63;;
32786;SDS011;19139;49.372;8.580;2023-06-26T06:42:38;7.30;;;6.50;;
32786;SDS011;19139;49.372;8.580;2023-06-26T06:45:05;7.00;;;6.30;;
32786;SDS011;19139;49.372;8.580;2023-06-26T06:47:32;8.00;;;6.97;;
32786;SDS011;19139;49.372;8.580;2023-06-26T06:50:00;7.80;;;7.10;;
32786;SDS011;19139;49.372;8.580;2023-06-26T06:52:37;8.10;;;7.17;;
32786;SDS011;19139;49.372;8.580;2023-06-26T06:55:06;7.97;;;7.17;;
32786;SDS011;19139;49.372;8.580;2023-06-26T06:57:37;8.30;;;7.40;;
32786;SDS011;19139;49.372;8.580;2023-06-26T07:00:05;7.73;;;7.00;;
32786;SDS011;19139;49.372;8.580;2023-06-26T07:02:35;7.00;;;6.30;;
32786;SDS011;19139;49.372;8.580;2023-06-26T07:05:05;7.07;;;6.37;;
32786;SDS011;19139;49.372;8.580;2023-06-26T07:07:32;7.83;;;7.03;;
32786;SDS011;19139;49.372;8.580;2023-06-26T07:10:02;8.03;;;7.23;;
32786;SDS011;19139;49.372;8.580;2023-06-26T07:12:31;7.10;;;6.40;;
32786;SDS011;19139;49.372;8.580;2023-06-26T07:14:59;7.80;;;6.50;;
32786;SDS011;19139;49.372;8.580;2023-06-26T07:17:27;7.53;;;6.13;;
32786;SDS011;19139;49.372;8.580;2023-06-26T07:19:54;6.90;;;6.20;;
32786;SDS011;19139;49.372;8.580;2023-06-26T07:22:20;6.90;;;6.20;;
32786;SDS011;19139;49.372;8.580;2023-06-26T07:24:47;8.17;;;6.70;;
32786;SDS011;19139;49.372;8.580;2023-06-26T07:27:15;6.37;;;5.77;;
32786;SDS011;19139;49.372;8.580;2023-06-26T07:29:42;6.80;;;6.20;;
32786;SDS011;19139;49.372;8.580;2023-06-26T07:32:09;6.40;;;5.80;;
32786;SDS011;19139;49.372;8.580;2023-06-26T07:34:39;7.27;;;6.60;;
32786;SDS011;19139;49.372;8.580;2023-06-26T07:37:05;6.93;;;6.33;;
32786;SDS011;19139;49.372;8.580;2023-06-26T07:39:32;7.03;;;6.33;;
32786;SDS011;19139;49.372;8.580;2023-06-26T07:41:59;6.97;;;6.30;;
32786;SDS011;19139;49.372;8.580;2023-06-26T07:44:25;7.17;;;6.47;;
32786;SDS011;19139;49.372;8.580;2023-06-26T07:46:53;6.80;;;6.10;;
32786;SDS011;19139;49.372;8.580;2023-06-26T07:49:20;6.43;;;5.83;;
32786;SDS011;19139;49.372;8.580;2023-06-26T07:51:46;7.17;;;6.47;;
32786;SDS011;19139;49.372;8.580;2023-06-26T07:54:13;7.53;;;6.77;;
32786;SDS011;19139;49.372;8.580;2023-06-26T07:59:26;6.90;;;6.13;;
32786;SDS011;19139;49.372;8.580;2023-06-26T08:01:55;7.00;;;6.30;;
32786;SDS011;19139;49.372;8.580;2023-06-26T08:04:24;6.23;;;5.63;;
32786;SDS011;19139;49.372;8.580;2023-06-26T08:06:57;6.43;;;5.83;;
32786;SDS011;19139;49.372;8.580;2023-06-26T08:09:25;6.70;;;6.00;;
32786;SDS011;19139;49.372;8.580;2023-06-26T08:11:53;7.27;;;6.50;;
32786;SDS011;19139;49.372;8.580;2023-06-26T08:14:21;6.60;;;6.00;;
32786;SDS011;19139;49.372;8.580;2023-06-26T08:16:47;6.20;;;5.60;;
32786;SDS011;19139;49.372;8.580;2023-06-26T08:19:15;6.80;;;6.10;;
32786;SDS011;19139;49.372;8.580;2023-06-26T08:21:42;6.83;;;6.13;;
32786;SDS011;19139;49.372;8.580;2023-06-26T08:24:10;7.17;;;6.47;;
32786;SDS011;19139;49.372;8.580;2023-06-26T08:26:37;6.27;;;5.67;;
32786;SDS011;19139;49.372;8.580;2023-06-26T08:29:04;6.03;;;5.23;;
32786;SDS011;19139;49.372;8.580;2023-06-26T08:31:37;6.33;;;5.73;;
32786;SDS011;19139;49.372;8.580;2023-06-26T08:34:05;5.97;;;5.47;;
32786;SDS011;19139;49.372;8.580;2023-06-26T08:36:32;6.20;;;5.60;;
32786;SDS011;19139;49.372;8.580;2023-06-26T08:38:59;6.03;;;5.37;;
32786;SDS011;19139;49.372;8.580;2023-06-26T08:41:26;5.97;;;5.37;;
32786;SDS011;19139;49.372;8.580;2023-06-26T08:43:53;6.60;;;6.00;;
32786;SDS011;19139;49.372;8.580;2023-06-26T08:46:20;7.53;;;6.13;;
32786;SDS011;19139;49.372;8.580;2023-06-26T08:48:56;7.43;;;5.47;;
32786;SDS011;19139;49.372;8.580;2023-06-26T08:51:26;6.70;;;6.10;;
32786;SDS011;19139;49.372;8.580;2023-06-26T08:53:58;6.23;;;5.30;;
32786;SDS011;19139;49.372;8.580;2023-06-26T08:56:27;5.93;;;5.40;;
32786;SDS011;19139;49.372;8.580;2023-06-26T08:58:58;6.00;;;5.40;;
32786;SDS011;19139;49.372;8.580;2023-06-26T09:01:26;6.37;;;5.73;;
32786;SDS011;19139;49.372;8.580;2023-06-26T09:03:53;5.70;;;5.10;;
32786;SDS011;19139;49.372;8.580;2023-06-26T09:06:20;6.27;;;5.67;;
32786;SDS011;19139;49.372;8.580;2023-06-26T09:08:47;6.10;;;5.50;;
32786;SDS011;19139;49.372;8.580;2023-06-26T09:11:13;6.50;;;5.90;;
32786;SDS011;19139;49.372;8.580;2023-06-26T09:13:40;6.20;;;5.60;;
32786;SDS011;19139;49.372;8.580;2023-06-26T09:16:07;5.77;;;5.27;;
32786;SDS011;19139;49.372;8.580;2023-06-26T09:18:34;6.73;;;6.13;;
32786;SDS011;19139;49.372;8.580;2023-06-26T09:21:08;6.00;;;5.40;;
32786;SDS011;19139;49.372;8.580;2023-06-26T09:23:36;5.97;;;5.23;;
32786;SDS011;19139;49.372;8.580;2023-06-26T09:26:03;5.90;;;5.40;;
32786;SDS011;19139;49.372;8.580;2023-06-26T09:28:31;5.70;;;5.20;;
32786;SDS011;19139;49.372;8.580;2023-06-26T09:31:03;5.30;;;4.80;;
32786;SDS011;19139;49.372;8.580;2023-06-26T09:33:37;6.00;;;5.40;;
32786;SDS011;19139;49.372;8.580;2023-06-26T09:36:05;5.90;;;5.30;;
32786;SDS011;19139;49.372;8.580;2023-06-26T09:38:44;5.43;;;4.93;;
32786;SDS011;19139;49.372;8.580;2023-06-26T09:41:11;6.23;;;5.57;;
32786;SDS011;19139;49.372;8.580;2023-06-26T09:43:50;5.73;;;5.23;;
32786;SDS011;19139;49.372;8.580;2023-06-26T09:46:17;5.67;;;5.17;;
32786;SDS011;19139;49.372;8.580;2023-06-26T09:49:06;5.27;;;4.77;;
32786;SDS011;19139;49.372;8.580;2023-06-26T09:51:35;5.67;;;5.17;;
32786;SDS011;19139;49.372;8.580;2023-06-26T09:54:03;5.73;;;5.23;;
32786;SDS011;19139;49.372;8.580;2023-06-26T09:56:31;5.23;;;4.80;;
32786;SDS011;19139;49.372;8.580;2023-06-26T09:58:59;5.03;;;4.63;;
32786;SDS011;19139;49.372;8.580;2023-06-26T10:01:27;5.63;;;5.13;;
32786;SDS011;19139;49.372;8.580;2023-06-26T10:03:55;5.60;;;5.10;;
32786;SDS011;19139;49.372;8.580;2023-06-26T10:06:33;5.97;;;5.33;;
32786;SDS011;19139;49.372;8.580;2023-06-26T10:09:02;6.00;;;5.40;;
32786;SDS011;19139;49.372;8.580;2023-06-26T10:11:35;6.10;;;5.60;;
32786;SDS011;19139;49.372;8.580;2023-06-26T10:14:07;5.60;;;5.10;;
32786;SDS011;19139;49.372;8.580;2023-06-26T10:16:43;5.27;;;4.77;;
32786;SDS011;19139;49.372;8.580;2023-06-26T10:19:11;5.40;;;4.90;;
32786;SDS011;19139;49.372;8.580;2023-06-26T10:21:40;5.40;;;4.90;;
32786;SDS011;19139;49.372;8.580;2023-06-26T10:24:08;5.70;;;5.20;;
32786;SDS011;19139;49.372;8.580;2023-06-26T10:26:38;5.40;;;4.90;;
32786;SDS011;19139;49.372;8.580;2023-06-26T10:29:08;4.80;;;4.30;;
32786;SDS011;19139;49.372;8.580;2023-06-26T10:31:36;5.53;;;4.97;;
32786;SDS011;19139;49.372;8.580;2023-06-26T10:34:04;4.90;;;4.50;;
32786;SDS011;19139;49.372;8.580;2023-06-26T10:36:32;4.73;;;4.33;;
32786;SDS011;19139;49.372;8.580;2023-06-26T10:39:04;4.87;;;4.47;;
32786;SDS011;19139;49.372;8.580;2023-06-26T10:41:38;4.70;;;4.30;;
32786;SDS011;19139;49.372;8.580;2023-06-26T10:44:28;5.23;;;4.77;;
32786;SDS011;19139;49.372;8.580;2023-06-26T10:47:10;5.23;;;4.73;;
32786;SDS011;19139;49.372;8.580;2023-06-26T10:49:54;5.23;;;4.73;;
32786;SDS011;19139;49.372;8.580;2023-06-26T10:52:38;4.70;;;4.30;;
32786;SDS011;19139;49.372;8.580;2023-06-26T10:55:07;5.87;;;5.13;;
32786;SDS011;19139;49.372;8.580;2023-06-26T10:57:37;5.13;;;4.63;;
32786;SDS011;19139;49.372;8.580;2023-06-26T11:00:10;4.67;;;4.20;;
32786;SDS011;19139;49.372;8.580;2023-06-26T11:02:49;4.90;;;4.40;;
32786;SDS011;19139;49.372;8.580;2023-06-26T11:05:29;5.43;;;4.93;;
32786;SDS011;19139;49.372;8.580;2023-06-26T11:08:06;5.27;;;4.77;;
32786;SDS011;19139;49.372;8.580;2023-06-26T11:10:55;4.90;;;4.50;;
32786;SDS011;19139;49.372;8.580;2023-06-26T11:13:26;5.03;;;4.57;;
32786;SDS011;19139;49.372;8.580;2023-06-26T11:15:53;5.40;;;4.90;;
32786;SDS011;19139;49.372;8.580;2023-06-26T11:18:22;5.03;;;4.53;;
32786;SDS011;19139;49.372;8.580;2023-06-26T11:20:50;5.13;;;4.73;;
32786;SDS011;19139;49.372;8.580;2023-06-26T11:23:19;5.33;;;4.70;;
32786;SDS011;19139;49.372;8.580;2023-06-26T11:25:50;6.07;;;4.70;;
32786;SDS011;19139;49.372;8.580;2023-06-26T11:28:17;5.90;;;4.70;;
32786;SDS011;19139;49.372;8.580;2023-06-26T11:30:44;4.97;;;4.57;;
32786;SDS011;19139;49.372;8.580;2023-06-26T11:33:10;5.00;;;4.50;;
32786;SDS011;19139;49.372;8.580;2023-06-26T11:35:37;4.90;;;4.50;;
32786;SDS011;19139;49.372;8.580;2023-06-26T11:38:04;5.00;;;4.23;;
32786;SDS011;19139;49.372;8.580;2023-06-26T11:40:35;4.83;;;4.43;;
32786;SDS011;19139;49.372;8.580;2023-06-26T11:43:03;5.33;;;4.83;;
32786;SDS011;19139;49.372;8.580;2023-06-26T11:45:31;4.90;;;4.40;;
32786;SDS011;19139;49.372;8.580;2023-06-26T11:47:58;4.87;;;4.43;;
32786;SDS011;19139;49.372;8.580;2023-06-26T11:50:27;5.10;;;4.60;;
32786;SDS011;19139;49.372;8.580;2023-06-26T11:52:57;4.70;;;4.30;;
32786;SDS011;19139;49.372;8.580;2023-06-26T11:55:25;4.80;;;4.30;;
32786;SDS011;19139;49.372;8.580;2023-06-26T11:57:53;5.13;;;4.63;;
32786;SDS011;19139;49.372;8.580;2023-06-26T12:00:21;4.60;;;4.20;;
32786;SDS011;19139;49.372;8.580;2023-06-26T12:02:48;4.77;;;4.37;;
32786;SDS011;19139;49.372;8.580;2023-06-26T12:05:16;4.70;;;4.20;;
32786;SDS011;19139;49.372;8.580;2023-06-26T12:07:44;5.13;;;4.63;;
32786;SDS011;19139;49.372;8.580;2023-06-26T12:10:15;4.57;;;4.17;;
32786;SDS011;19139;49.372;8.580;2023-06-26T12:12:45;4.57;;;4.17;;
32786;SDS011;19139;49.372;8.580;2023-06-26T12:15:13;4.37;;;3.97;;
32786;SDS011;19139;49.372;8.580;2023-06-26T12:17:41;4.80;;;4.40;;
32786;SDS011;19139;49.372;8.580;2023-06-26T12:20:21;4.70;;;4.30;;
32786;SDS011;19139;49.372;8.580;2023-06-26T12:22:48;4.97;;;4.47;;
32786;SDS011;19139;49.372;8.580;2023-06-26T12:25:21;4.57;;;4.17;;
32786;SDS011;19139;49.372;8.580;2023-06-26T12:27:49;4.67;;;4.27;;
32786;SDS011;19139;49.372;8.580;2023-06-26T12:30:16;4.50;;;4.10;;
32786;SDS011;19139;49.372;8.580;2023-06-26T12:32:46;4.67;;;4.23;;
32786;SDS011;19139;49.372;8.580;2023-06-26T12:35:13;4.53;;;4.13;;
32786;SDS011;19139;49.372;8.580;2023-06-26T12:37:41;5.20;;;4.20;;
32786;SDS011;19139;49.372;8.580;2023-06-26T12:40:17;3.90;;;3.60;;
32786;SDS011;19139;49.372;8.580;2023-06-26T12:42:45;4.30;;;3.90;;
32786;SDS011;19139;49.372;8.580;2023-06-26T12:45:13;4.80;;;4.40;;
32786;SDS011;19139;49.372;8.580;2023-06-26T12:48:07;4.63;;;4.23;;
32786;SDS011;19139;49.372;8.580;2023-06-26T12:50:37;4.27;;;3.97;;
32786;SDS011;19139;49.372;8.580;2023-06-26T12:53:14;4.80;;;4.40;;
32786;SDS011;19139;49.372;8.580;2023-06-26T12:55:41;4.97;;;4.50;;
32786;SDS011;19139;49.372;8.580;2023-06-26T12:58:08;4.60;;;4.20;;
32786;SDS011;19139;49.372;8.580;2023-06-26T13:00:37;4.50;;;4.10;;
32786;SDS011;19139;49.372;8.580;2023-06-26T13:03:06;4.47;;;4.07;;
32786;SDS011;19139;49.372;8.580;2023-06-26T13:05:36;4.43;;;4.03;;
32786;SDS011;19139;49.372;8.580;2023-06-26T13:08:03;4.70;;;4.30;;
32786;SDS011;19139;49.372;8.580;2023-06-26T13:10:30;4.00;;;3.60;;
32786;SDS011;19139;49.372;8.580;2023-06-26T13:12:56;4.37;;;3.97;;
32786;SDS011;19139;49.372;8.580;2023-06-26T13:15:23;4.50;;;4.10;;
32786;SDS011;19139;49.372;8.580;2023-06-26T13:17:50;4.10;;;3.80;;
32786;SDS011;19139;49.372;8.580;2023-06-26T13:20:16;4.50;;;4.10;;
32786;SDS011;19139;49.372;8.580;2023-06-26T13:22:43;4.07;;;3.77;;
32786;SDS011;19139;49.372;8.580;2023-06-26T13:25:12;4.50;;;4.10;;
32786;SDS011;19139;49.372;8.580;2023-06-26T13:27:38;4.00;;;3.60;;
32786;SDS011;19139;49.372;8.580;2023-06-26T13:30:05;3.97;;;3.57;;
32786;SDS011;19139;49.372;8.580;2023-06-26T13:32:32;4.53;;;4.10;;
32786;SDS011;19139;49.372;8.580;2023-06-26T13:34:59;4.10;;;3.70;;
32786;SDS011;19139;49.372;8.580;2023-06-26T13:37:26;4.37;;;3.97;;
32786;SDS011;19139;49.372;8.580;2023-06-26T13:39:52;3.90;;;3.50;;
32786;SDS011;19139;49.372;8.580;2023-06-26T13:42:19;3.97;;;3.67;;
32786;SDS011;19139;49.372;8.580;2023-06-26T13:44:46;3.67;;;3.37;;
32786;SDS011;19139;49.372;8.580;2023-06-26T13:47:29;4.13;;;3.23;;
32786;SDS011;19139;49.372;8.580;2023-06-26T13:49:56;4.13;;;3.73;;
32786;SDS011;19139;49.372;8.580;2023-06-26T13:52:22;3.57;;;3.27;;
32786;SDS011;19139;49.372;8.580;2023-06-26T13:54:49;4.00;;;3.70;;
32786;SDS011;19139;49.372;8.580;2023-06-26T13:57:16;4.17;;;3.77;;
32786;SDS011;19139;49.372;8.580;2023-06-26T13:59:42;4.13;;;3.73;;
32786;SDS011;19139;49.372;8.580;2023-06-26T14:02:12;4.37;;;3.97;;
32786;SDS011;19139;49.372;8.580;2023-06-26T14:04:39;3.77;;;3.43;;
32786;SDS011;19139;49.372;8.580;2023-06-26T14:07:06;4.00;;;3.70;;
32786;SDS011;19139;49.372;8.580;2023-06-26T14:09:33;4.50;;;4.10;;
32786;SDS011;19139;49.372;8.580;2023-06-26T14:12:00;3.70;;;3.40;;
32786;SDS011;19139;49.372;8.580;2023-06-26T14:14:27;3.77;;;3.47;;
32786;SDS011;19139;49.372;8.580;2023-06-26T14:16:53;4.17;;;3.77;;
32786;SDS011;19139;49.372;8.580;2023-06-26T14:19:20;4.10;;;3.70;;
32786;SDS011;19139;49.372;8.580;2023-06-26T14:21:47;4.10;;;3.50;;
32786;SDS011;19139;49.372;8.580;2023-06-26T14:24:13;4.40;;;4.00;;
32786;SDS011;19139;49.372;8.580;2023-06-26T14:26:40;4.10;;;3.70;;
32786;SDS011;19139;49.372;8.580;2023-06-26T14:29:06;4.30;;;3.90;;
32786;SDS011;19139;49.372;8.580;2023-06-26T14:31:33;3.50;;;3.20;;
32786;SDS011;19139;49.372;8.580;2023-06-26T14:34:00;3.90;;;3.60;;
32786;SDS011;19139;49.372;8.580;2023-06-26T14:36:28;4.57;;;4.10;;
32786;SDS011;19139;49.372;8.580;2023-06-26T14:38:58;3.53;;;3.23;;
32786;SDS011;19139;49.372;8.580;2023-06-26T14:41:26;4.43;;;4.03;;
32786;SDS011;19139;49.372;8.580;2023-06-26T14:43:54;4.10;;;3.70;;
32786;SDS011;19139;49.372;8.580;2023-06-26T14:46:21;3.90;;;3.60;;
32786;SDS011;19139;49.372;8.580;2023-06-26T14:48:48;4.20;;;3.83;;
32786;SDS011;19139;49.372;8.580;2023-06-26T14:51:17;4.07;;;3.73;;
32786;SDS011;19139;49.372;8.580;2023-06-26T14:53:43;4.80;;;4.30;;
32786;SDS011;19139;49.372;8.580;2023-06-26T14:56:11;4.37;;;3.97;;
32786;SDS011;19139;49.372;8.580;2023-06-26T14:58:38;4.83;;;4.40;;
32786;SDS011;19139;49.372;8.580;2023-06-26T15:01:05;3.90;;;3.60;;
32786;SDS011;19139;49.372;8.580;2023-06-26T15:03:31;4.40;;;4.00;;
32786;SDS011;19139;49.372;8.580;2023-06-26T15:05:58;4.20;;;3.80;;
32786;SDS011;19139;49.372;8.580;2023-06-26T15:08:25;3.97;;;3.63;;